Girdwood, Alaska
Current Conditions -  °F | °C
As of 2:53 PM on Tuesday 25 Nov 2014 (Local Time) from PATO Reporting Station
Broken Clouds Broken Clouds  
Wind Chill: 31°   Ceiling: 6500
Heat Index: 31°   Visibility: 10mi
Dew Point: 31°   Wind: 0mph
Humidity: 100%   Direction: NA
Pressure: 30.24"   Gusts: NA
Location:  60.95°N, 149.16°W
Report Text: PATO 252353Z AUTO 00000KT 10SM SCT050 BKN065 M01/M01 A3024 RMK AO2 SLP242 T10061006 10000 21011 51010 TSNO
Loading
Personal Weather Stations






























Interactive Weather Map New forecast layout! Learn more

10-Day Weather Forecast

Advertisements
Track Severe Weather on mobile